WEATHER/FLIGHT PLANNING

Hattiesburg Radar

 

 

 

 

Weather Links

Flight Planning Links

 

METAR

2017/02/26 04:53 KHBG 260453Z AUTO 35004KT 10SM CLR 08/M03 A3015 RMK AO2 SLP210 T00781028

TAF

2017/02/26 06:24 TAF KHBG 260521Z 2606/2706 11005KT P6SM SKC FM270000 15003KT P6SM SCT250